sensor_id;sensor_type;location;lat;lon;timestamp;temperature;humidity
31967;DHT22;18496;52.042;6.812;2022-08-07T00:00:04;20.60;73.80
31967;DHT22;18496;52.042;6.812;2022-08-07T00:02:15;20.60;73.80
31967;DHT22;18496;52.042;6.812;2022-08-07T00:04:19;20.60;73.70
31967;DHT22;18496;52.042;6.812;2022-08-07T00:06:23;20.60;73.80
31967;DHT22;18496;52.042;6.812;2022-08-07T00:08:26;20.60;73.80
31967;DHT22;18496;52.042;6.812;2022-08-07T00:10:31;20.50;74.00
31967;DHT22;18496;52.042;6.812;2022-08-07T00:12:34;20.50;74.20
31967;DHT22;18496;52.042;6.812;2022-08-07T00:14:38;20.40;74.10
31967;DHT22;18496;52.042;6.812;2022-08-07T00:16:42;20.50;74.30
31967;DHT22;18496;52.042;6.812;2022-08-07T00:18:45;20.40;74.20
31967;DHT22;18496;52.042;6.812;2022-08-07T00:20:50;20.40;74.30
31967;DHT22;18496;52.042;6.812;2022-08-07T00:22:54;20.30;74.40
31967;DHT22;18496;52.042;6.812;2022-08-07T00:24:58;20.30;74.50
31967;DHT22;18496;52.042;6.812;2022-08-07T00:27:01;20.20;74.50
31967;DHT22;18496;52.042;6.812;2022-08-07T00:29:05;20.20;74.80
31967;DHT22;18496;52.042;6.812;2022-08-07T00:31:10;20.20;74.90
31967;DHT22;18496;52.042;6.812;2022-08-07T00:33:13;20.20;74.80
31967;DHT22;18496;52.042;6.812;2022-08-07T00:35:18;20.10;74.70
31967;DHT22;18496;52.042;6.812;2022-08-07T00:37:21;20.00;75.10
31967;DHT22;18496;52.042;6.812;2022-08-07T00:39:25;20.00;75.10
31967;DHT22;18496;52.042;6.812;2022-08-07T00:41:32;20.00;75.30
31967;DHT22;18496;52.042;6.812;2022-08-07T00:43:36;20.00;75.20
31967;DHT22;18496;52.042;6.812;2022-08-07T00:45:40;19.90;75.30
31967;DHT22;18496;52.042;6.812;2022-08-07T00:47:44;19.90;75.60
31967;DHT22;18496;52.042;6.812;2022-08-07T00:49:48;19.90;75.60
31967;DHT22;18496;52.042;6.812;2022-08-07T00:51:51;19.90;75.60
31967;DHT22;18496;52.042;6.812;2022-08-07T00:53:55;19.80;75.80
31967;DHT22;18496;52.042;6.812;2022-08-07T00:55:59;19.70;76.00
31967;DHT22;18496;52.042;6.812;2022-08-07T00:58:03;19.60;76.30
31967;DHT22;18496;52.042;6.812;2022-08-07T01:00:07;19.50;76.60
31967;DHT22;18496;52.042;6.812;2022-08-07T01:02:11;19.40;76.80
31967;DHT22;18496;52.042;6.812;2022-08-07T01:04:15;19.40;76.90
31967;DHT22;18496;52.042;6.812;2022-08-07T01:06:19;19.50;76.90
31967;DHT22;18496;52.042;6.812;2022-08-07T01:08:23;19.50;76.70
31967;DHT22;18496;52.042;6.812;2022-08-07T01:10:27;19.50;76.90
31967;DHT22;18496;52.042;6.812;2022-08-07T01:12:31;19.50;76.80
31967;DHT22;18496;52.042;6.812;2022-08-07T01:14:35;19.40;76.90
31967;DHT22;18496;52.042;6.812;2022-08-07T01:16:39;19.30;77.40
31967;DHT22;18496;52.042;6.812;2022-08-07T01:18:43;19.30;77.60
31967;DHT22;18496;52.042;6.812;2022-08-07T01:23:12;19.30;77.50
31967;DHT22;18496;52.042;6.812;2022-08-07T01:25:17;19.30;77.40
31967;DHT22;18496;52.042;6.812;2022-08-07T01:27:21;19.30;77.50
31967;DHT22;18496;52.042;6.812;2022-08-07T01:29:26;19.30;77.50
31967;DHT22;18496;52.042;6.812;2022-08-07T01:31:31;19.30;77.40
31967;DHT22;18496;52.042;6.812;2022-08-07T01:33:37;19.30;77.40
31967;DHT22;18496;52.042;6.812;2022-08-07T01:35:41;19.20;77.60
31967;DHT22;18496;52.042;6.812;2022-08-07T01:37:45;19.20;77.80
31967;DHT22;18496;52.042;6.812;2022-08-07T01:39:50;19.20;77.90
31967;DHT22;18496;52.042;6.812;2022-08-07T01:42:00;19.00;77.90
31967;DHT22;18496;52.042;6.812;2022-08-07T01:44:07;19.00;78.40
31967;DHT22;18496;52.042;6.812;2022-08-07T01:46:13;19.00;78.60
31967;DHT22;18496;52.042;6.812;2022-08-07T01:48:20;19.00;78.40
31967;DHT22;18496;52.042;6.812;2022-08-07T01:50:25;19.00;78.30
31967;DHT22;18496;52.042;6.812;2022-08-07T01:52:30;19.00;78.50
31967;DHT22;18496;52.042;6.812;2022-08-07T01:54:38;19.10;78.40
31967;DHT22;18496;52.042;6.812;2022-08-07T01:56:59;19.00;78.30
31967;DHT22;18496;52.042;6.812;2022-08-07T01:59:07;18.90;78.60
31967;DHT22;18496;52.042;6.812;2022-08-07T02:01:15;18.80;78.90
31967;DHT22;18496;52.042;6.812;2022-08-07T02:03:23;18.90;79.00
31967;DHT22;18496;52.042;6.812;2022-08-07T02:05:41;18.90;78.80
31967;DHT22;18496;52.042;6.812;2022-08-07T02:07:52;18.90;78.90
31967;DHT22;18496;52.042;6.812;2022-08-07T02:10:05;18.90;79.00
31967;DHT22;18496;52.042;6.812;2022-08-07T02:12:14;18.80;78.90
31967;DHT22;18496;52.042;6.812;2022-08-07T02:14:28;18.80;79.10
31967;DHT22;18496;52.042;6.812;2022-08-07T02:16:32;18.80;79.00
31967;DHT22;18496;52.042;6.812;2022-08-07T02:18:39;18.90;78.90
31967;DHT22;18496;52.042;6.812;2022-08-07T02:20:46;18.90;78.80
31967;DHT22;18496;52.042;6.812;2022-08-07T02:22:56;18.80;78.90
31967;DHT22;18496;52.042;6.812;2022-08-07T02:25:03;18.70;79.20
31967;DHT22;18496;52.042;6.812;2022-08-07T02:27:08;18.70;79.40
31967;DHT22;18496;52.042;6.812;2022-08-07T02:29:13;18.60;79.30
31967;DHT22;18496;52.042;6.812;2022-08-07T02:31:18;18.60;79.50
31967;DHT22;18496;52.042;6.812;2022-08-07T02:33:24;18.60;79.70
31967;DHT22;18496;52.042;6.812;2022-08-07T02:35:32;18.50;79.80
31967;DHT22;18496;52.042;6.812;2022-08-07T02:37:39;18.60;79.80
31967;DHT22;18496;52.042;6.812;2022-08-07T02:39:45;18.50;79.80
31967;DHT22;18496;52.042;6.812;2022-08-07T02:41:54;18.50;80.10
31967;DHT22;18496;52.042;6.812;2022-08-07T02:44:00;18.50;80.10
31967;DHT22;18496;52.042;6.812;2022-08-07T02:46:05;18.40;80.20
31967;DHT22;18496;52.042;6.812;2022-08-07T02:48:12;18.40;80.40
31967;DHT22;18496;52.042;6.812;2022-08-07T02:50:16;18.30;80.50
31967;DHT22;18496;52.042;6.812;2022-08-07T02:53:10;18.30;80.60
31967;DHT22;18496;52.042;6.812;2022-08-07T02:54:55;18.30;80.80
31967;DHT22;18496;52.042;6.812;2022-08-07T02:57:01;18.20;80.70
31967;DHT22;18496;52.042;6.812;2022-08-07T02:59:09;18.20;81.60
31967;DHT22;18496;52.042;6.812;2022-08-07T03:01:17;18.20;80.90
31967;DHT22;18496;52.042;6.812;2022-08-07T03:03:26;18.20;80.90
31967;DHT22;18496;52.042;6.812;2022-08-07T03:05:30;18.20;81.00
31967;DHT22;18496;52.042;6.812;2022-08-07T03:07:36;18.20;81.00
31967;DHT22;18496;52.042;6.812;2022-08-07T03:09:40;18.20;81.00
31967;DHT22;18496;52.042;6.812;2022-08-07T03:11:45;18.20;81.00
31967;DHT22;18496;52.042;6.812;2022-08-07T03:13:49;18.20;81.20
31967;DHT22;18496;52.042;6.812;2022-08-07T03:15:54;18.20;81.30
31967;DHT22;18496;52.042;6.812;2022-08-07T03:17:59;18.20;81.20
31967;DHT22;18496;52.042;6.812;2022-08-07T03:20:04;18.20;81.20
31967;DHT22;18496;52.042;6.812;2022-08-07T03:22:08;18.20;81.10
31967;DHT22;18496;52.042;6.812;2022-08-07T03:24:12;18.20;81.00
31967;DHT22;18496;52.042;6.812;2022-08-07T03:26:18;18.10;81.20
31967;DHT22;18496;52.042;6.812;2022-08-07T03:28:24;18.10;81.20
31967;DHT22;18496;52.042;6.812;2022-08-07T03:30:29;18.10;81.30
31967;DHT22;18496;52.042;6.812;2022-08-07T03:32:39;18.00;81.30
31967;DHT22;18496;52.042;6.812;2022-08-07T03:34:46;17.90;81.50
31967;DHT22;18496;52.042;6.812;2022-08-07T03:36:51;17.90;82.50
31967;DHT22;18496;52.042;6.812;2022-08-07T03:39:00;17.80;81.80
31967;DHT22;18496;52.042;6.812;2022-08-07T03:41:06;17.70;81.90
31967;DHT22;18496;52.042;6.812;2022-08-07T03:43:11;17.70;81.90
31967;DHT22;18496;52.042;6.812;2022-08-07T03:45:15;17.60;82.00
31967;DHT22;18496;52.042;6.812;2022-08-07T03:47:19;17.60;82.30
31967;DHT22;18496;52.042;6.812;2022-08-07T03:49:25;17.50;82.40
31967;DHT22;18496;52.042;6.812;2022-08-07T03:51:30;17.50;82.40
31967;DHT22;18496;52.042;6.812;2022-08-07T03:53:36;17.50;82.70
31967;DHT22;18496;52.042;6.812;2022-08-07T03:55:41;17.40;82.90
31967;DHT22;18496;52.042;6.812;2022-08-07T03:57:45;17.40;82.90
31967;DHT22;18496;52.042;6.812;2022-08-07T03:59:51;17.40;82.90
31967;DHT22;18496;52.042;6.812;2022-08-07T04:01:55;17.40;83.10
31967;DHT22;18496;52.042;6.812;2022-08-07T04:04:00;17.30;83.10
31967;DHT22;18496;52.042;6.812;2022-08-07T04:06:07;17.30;83.20
31967;DHT22;18496;52.042;6.812;2022-08-07T04:08:13;17.40;83.30
31967;DHT22;18496;52.042;6.812;2022-08-07T04:10:18;17.40;83.20
31967;DHT22;18496;52.042;6.812;2022-08-07T04:12:23;17.40;83.00
31967;DHT22;18496;52.042;6.812;2022-08-07T04:14:28;17.40;83.10
31967;DHT22;18496;52.042;6.812;2022-08-07T04:16:32;17.40;83.20
31967;DHT22;18496;52.042;6.812;2022-08-07T04:18:39;17.40;83.30
31967;DHT22;18496;52.042;6.812;2022-08-07T04:20:44;17.40;83.20
31967;DHT22;18496;52.042;6.812;2022-08-07T04:22:49;17.50;83.10
31967;DHT22;18496;52.042;6.812;2022-08-07T04:24:55;17.50;83.40
31967;DHT22;18496;52.042;6.812;2022-08-07T04:26:58;17.50;83.20
31967;DHT22;18496;52.042;6.812;2022-08-07T04:29:06;17.40;83.30
31967;DHT22;18496;52.042;6.812;2022-08-07T04:31:12;17.40;84.30
31967;DHT22;18496;52.042;6.812;2022-08-07T04:33:17;17.40;83.60
31967;DHT22;18496;52.042;6.812;2022-08-07T04:35:24;17.30;83.90
31967;DHT22;18496;52.042;6.812;2022-08-07T04:37:31;17.30;83.90
31967;DHT22;18496;52.042;6.812;2022-08-07T04:39:35;17.20;84.00
31967;DHT22;18496;52.042;6.812;2022-08-07T04:41:39;17.10;84.20
31967;DHT22;18496;52.042;6.812;2022-08-07T04:43:43;17.10;84.70
31967;DHT22;18496;52.042;6.812;2022-08-07T04:48:11;17.00;84.80
31967;DHT22;18496;52.042;6.812;2022-08-07T04:50:40;17.10;84.90
31967;DHT22;18496;52.042;6.812;2022-08-07T04:53:04;17.00;84.90
31967;DHT22;18496;52.042;6.812;2022-08-07T04:55:22;17.00;85.20
31967;DHT22;18496;52.042;6.812;2022-08-07T04:59:52;17.00;85.50
31967;DHT22;18496;52.042;6.812;2022-08-07T05:02:14;17.00;85.80
31967;DHT22;18496;52.042;6.812;2022-08-07T05:04:34;17.00;86.10
31967;DHT22;18496;52.042;6.812;2022-08-07T05:07:03;17.00;86.80
31967;DHT22;18496;52.042;6.812;2022-08-07T05:09:29;17.00;86.30
31967;DHT22;18496;52.042;6.812;2022-08-07T05:11:44;17.00;86.40
31967;DHT22;18496;52.042;6.812;2022-08-07T05:13:58;17.00;86.60
31967;DHT22;18496;52.042;6.812;2022-08-07T05:16:09;17.00;86.80
31967;DHT22;18496;52.042;6.812;2022-08-07T05:18:19;17.10;87.00
31967;DHT22;18496;52.042;6.812;2022-08-07T05:20:33;17.10;87.10
31967;DHT22;18496;52.042;6.812;2022-08-07T05:22:43;17.10;87.30
31967;DHT22;18496;52.042;6.812;2022-08-07T05:24:48;17.10;87.50
31967;DHT22;18496;52.042;6.812;2022-08-07T05:26:56;17.20;87.80
31967;DHT22;18496;52.042;6.812;2022-08-07T05:29:03;17.20;87.90
31967;DHT22;18496;52.042;6.812;2022-08-07T05:31:07;17.30;88.10
31967;DHT22;18496;52.042;6.812;2022-08-07T05:33:14;17.30;88.20
31967;DHT22;18496;52.042;6.812;2022-08-07T05:35:18;17.40;88.30
31967;DHT22;18496;52.042;6.812;2022-08-07T05:37:23;17.40;88.10
31967;DHT22;18496;52.042;6.812;2022-08-07T05:39:35;17.50;88.30
31967;DHT22;18496;52.042;6.812;2022-08-07T05:41:41;17.60;88.30
31967;DHT22;18496;52.042;6.812;2022-08-07T05:43:49;17.60;88.20
31967;DHT22;18496;52.042;6.812;2022-08-07T05:45:54;17.60;88.20
31967;DHT22;18496;52.042;6.812;2022-08-07T05:47:59;17.70;88.50
31967;DHT22;18496;52.042;6.812;2022-08-07T05:50:05;17.70;88.50
31967;DHT22;18496;52.042;6.812;2022-08-07T05:52:10;17.70;88.80
31967;DHT22;18496;52.042;6.812;2022-08-07T05:54:15;17.70;89.00
31967;DHT22;18496;52.042;6.812;2022-08-07T05:56:20;17.80;89.00
31967;DHT22;18496;52.042;6.812;2022-08-07T05:58:28;17.80;88.90
31967;DHT22;18496;52.042;6.812;2022-08-07T06:00:33;17.90;89.20
31967;DHT22;18496;52.042;6.812;2022-08-07T06:02:44;17.90;89.20
31967;DHT22;18496;52.042;6.812;2022-08-07T06:04:54;17.90;88.90
31967;DHT22;18496;52.042;6.812;2022-08-07T06:07:02;18.00;89.30
31967;DHT22;18496;52.042;6.812;2022-08-07T06:09:09;18.00;89.50
31967;DHT22;18496;52.042;6.812;2022-08-07T06:11:18;18.10;89.60
31967;DHT22;18496;52.042;6.812;2022-08-07T06:13:22;18.10;90.00
31967;DHT22;18496;52.042;6.812;2022-08-07T06:15:28;18.10;90.10
31967;DHT22;18496;52.042;6.812;2022-08-07T06:17:31;18.20;90.30
31967;DHT22;18496;52.042;6.812;2022-08-07T06:19:39;18.20;90.40
31967;DHT22;18496;52.042;6.812;2022-08-07T06:21:44;18.20;90.60
31967;DHT22;18496;52.042;6.812;2022-08-07T06:23:49;18.20;90.70
31967;DHT22;18496;52.042;6.812;2022-08-07T06:25:53;18.20;90.70
31967;DHT22;18496;52.042;6.812;2022-08-07T06:28:08;18.30;90.80
31967;DHT22;18496;52.042;6.812;2022-08-07T06:30:12;18.30;90.80
31967;DHT22;18496;52.042;6.812;2022-08-07T06:32:16;18.40;90.80
31967;DHT22;18496;52.042;6.812;2022-08-07T06:34:24;18.40;91.00
31967;DHT22;18496;52.042;6.812;2022-08-07T06:36:28;18.50;91.00
31967;DHT22;18496;52.042;6.812;2022-08-07T06:38:34;18.50;91.10
31967;DHT22;18496;52.042;6.812;2022-08-07T06:40:41;18.60;91.40
31967;DHT22;18496;52.042;6.812;2022-08-07T06:42:47;18.60;91.70
31967;DHT22;18496;52.042;6.812;2022-08-07T06:45:01;18.60;91.60
31967;DHT22;18496;52.042;6.812;2022-08-07T06:47:05;18.60;91.80
31967;DHT22;18496;52.042;6.812;2022-08-07T06:49:09;18.70;92.00
31967;DHT22;18496;52.042;6.812;2022-08-07T06:51:21;18.70;92.20
31967;DHT22;18496;52.042;6.812;2022-08-07T06:53:27;18.70;92.20
31967;DHT22;18496;52.042;6.812;2022-08-07T06:55:32;18.70;92.30
31967;DHT22;18496;52.042;6.812;2022-08-07T06:57:38;18.70;92.40
31967;DHT22;18496;52.042;6.812;2022-08-07T06:59:44;18.80;92.60
31967;DHT22;18496;52.042;6.812;2022-08-07T07:01:49;18.80;92.60
31967;DHT22;18496;52.042;6.812;2022-08-07T07:03:54;18.90;92.50
31967;DHT22;18496;52.042;6.812;2022-08-07T07:05:59;19.00;92.70
31967;DHT22;18496;52.042;6.812;2022-08-07T07:08:04;19.00;93.10
31967;DHT22;18496;52.042;6.812;2022-08-07T07:10:08;19.00;92.70
31967;DHT22;18496;52.042;6.812;2022-08-07T07:12:47;19.00;92.80
31967;DHT22;18496;52.042;6.812;2022-08-07T07:17:10;19.10;92.40
31967;DHT22;18496;52.042;6.812;2022-08-07T07:19:22;19.10;92.40
31967;DHT22;18496;52.042;6.812;2022-08-07T07:21:31;19.20;92.20
31967;DHT22;18496;52.042;6.812;2022-08-07T07:23:35;19.20;92.00
31967;DHT22;18496;52.042;6.812;2022-08-07T07:25:40;19.30;92.00
31967;DHT22;18496;52.042;6.812;2022-08-07T07:30:15;19.40;91.70
31967;DHT22;18496;52.042;6.812;2022-08-07T07:32:21;19.50;90.70
31967;DHT22;18496;52.042;6.812;2022-08-07T07:34:28;19.60;91.10
31967;DHT22;18496;52.042;6.812;2022-08-07T07:36:36;19.70;90.80
31967;DHT22;18496;52.042;6.812;2022-08-07T07:38:41;19.70;89.70
31967;DHT22;18496;52.042;6.812;2022-08-07T07:40:46;19.80;89.50
31967;DHT22;18496;52.042;6.812;2022-08-07T07:42:52;19.90;88.80
31967;DHT22;18496;52.042;6.812;2022-08-07T07:44:58;19.90;89.70
31967;DHT22;18496;52.042;6.812;2022-08-07T07:47:04;20.00;89.60
31967;DHT22;18496;52.042;6.812;2022-08-07T07:49:10;20.00;89.50
31967;DHT22;18496;52.042;6.812;2022-08-07T07:51:16;20.10;89.20
31967;DHT22;18496;52.042;6.812;2022-08-07T07:53:22;20.10;88.90
31967;DHT22;18496;52.042;6.812;2022-08-07T07:55:27;20.20;88.70
31967;DHT22;18496;52.042;6.812;2022-08-07T07:57:32;20.30;88.60
31967;DHT22;18496;52.042;6.812;2022-08-07T07:59:37;20.40;88.80
31967;DHT22;18496;52.042;6.812;2022-08-07T08:01:45;20.50;87.90
31967;DHT22;18496;52.042;6.812;2022-08-07T08:03:53;20.60;87.40
31967;DHT22;18496;52.042;6.812;2022-08-07T08:05:58;20.70;87.10
31967;DHT22;18496;52.042;6.812;2022-08-07T08:08:03;20.70;86.60
31967;DHT22;18496;52.042;6.812;2022-08-07T08:10:08;20.80;86.40
31967;DHT22;18496;52.042;6.812;2022-08-07T08:12:12;20.90;85.90
31967;DHT22;18496;52.042;6.812;2022-08-07T08:14:16;21.00;84.90
31967;DHT22;18496;52.042;6.812;2022-08-07T08:16:22;21.00;83.60
31967;DHT22;18496;52.042;6.812;2022-08-07T08:18:27;21.00;82.60
31967;DHT22;18496;52.042;6.812;2022-08-07T08:20:33;21.10;82.40
31967;DHT22;18496;52.042;6.812;2022-08-07T08:22:39;21.10;82.90
31967;DHT22;18496;52.042;6.812;2022-08-07T08:25:02;21.20;83.60
31967;DHT22;18496;52.042;6.812;2022-08-07T08:27:28;21.30;83.00
31967;DHT22;18496;52.042;6.812;2022-08-07T08:29:45;21.40;82.70
31967;DHT22;18496;52.042;6.812;2022-08-07T08:31:52;21.40;81.50
31967;DHT22;18496;52.042;6.812;2022-08-07T08:34:07;21.50;81.20
31967;DHT22;18496;52.042;6.812;2022-08-07T08:36:12;21.50;80.20
31967;DHT22;18496;52.042;6.812;2022-08-07T08:38:21;21.50;81.40
31967;DHT22;18496;52.042;6.812;2022-08-07T08:40:31;21.60;80.20
31967;DHT22;18496;52.042;6.812;2022-08-07T08:42:40;21.60;80.00
31967;DHT22;18496;52.042;6.812;2022-08-07T08:45:13;21.60;78.80
31967;DHT22;18496;52.042;6.812;2022-08-07T08:50:20;21.70;76.20
31967;DHT22;18496;52.042;6.812;2022-08-07T08:52:28;21.70;75.70
31967;DHT22;18496;52.042;6.812;2022-08-07T08:54:42;21.80;76.40
31967;DHT22;18496;52.042;6.812;2022-08-07T08:56:49;21.90;75.40
31967;DHT22;18496;52.042;6.812;2022-08-07T08:59:55;22.00;73.80
31967;DHT22;18496;52.042;6.812;2022-08-07T09:01:42;22.00;72.30
31967;DHT22;18496;52.042;6.812;2022-08-07T09:04:11;22.00;71.20
31967;DHT22;18496;52.042;6.812;2022-08-07T09:08:54;22.10;70.80
31967;DHT22;18496;52.042;6.812;2022-08-07T09:13:36;22.10;70.30
31967;DHT22;18496;52.042;6.812;2022-08-07T09:21:11;22.40;71.10
31967;DHT22;18496;52.042;6.812;2022-08-07T09:26:22;22.60;69.30
31967;DHT22;18496;52.042;6.812;2022-08-07T09:28:32;22.80;69.20
31967;DHT22;18496;52.042;6.812;2022-08-07T09:30:59;22.90;68.70
31967;DHT22;18496;52.042;6.812;2022-08-07T09:35:37;23.10;68.00
31967;DHT22;18496;52.042;6.812;2022-08-07T09:40:23;23.30;67.40
31967;DHT22;18496;52.042;6.812;2022-08-07T09:45:29;23.40;66.10
31967;DHT22;18496;52.042;6.812;2022-08-07T09:52:41;23.70;64.70
31967;DHT22;18496;52.042;6.812;2022-08-07T09:55:16;23.70;64.90
31967;DHT22;18496;52.042;6.812;2022-08-07T09:59:40;23.90;62.50
31967;DHT22;18496;52.042;6.812;2022-08-07T10:02:00;23.90;62.00
31967;DHT22;18496;52.042;6.812;2022-08-07T10:09:32;24.20;61.20
31967;DHT22;18496;52.042;6.812;2022-08-07T10:17:08;24.40;60.50
31967;DHT22;18496;52.042;6.812;2022-08-07T10:24:48;24.60;59.50
31967;DHT22;18496;52.042;6.812;2022-08-07T10:29:36;24.60;58.10
31967;DHT22;18496;52.042;6.812;2022-08-07T10:34:07;24.60;59.00
31967;DHT22;18496;52.042;6.812;2022-08-07T10:40:50;24.90;58.50
31967;DHT22;18496;52.042;6.812;2022-08-07T10:43:19;25.00;57.80
31967;DHT22;18496;52.042;6.812;2022-08-07T10:45:34;25.00;56.10
31967;DHT22;18496;52.042;6.812;2022-08-07T10:50:26;25.30;58.30
31967;DHT22;18496;52.042;6.812;2022-08-07T10:55:17;25.50;56.40
31967;DHT22;18496;52.042;6.812;2022-08-07T10:57:42;25.60;56.90
31967;DHT22;18496;52.042;6.812;2022-08-07T11:02:26;25.70;56.00
31967;DHT22;18496;52.042;6.812;2022-08-07T11:06:53;25.70;55.40
31967;DHT22;18496;52.042;6.812;2022-08-07T11:09:16;25.80;55.40
31967;DHT22;18496;52.042;6.812;2022-08-07T11:11:34;25.80;54.20
31967;DHT22;18496;52.042;6.812;2022-08-07T11:14:09;25.80;54.30
31967;DHT22;18496;52.042;6.812;2022-08-07T11:16:35;25.70;54.70
31967;DHT22;18496;52.042;6.812;2022-08-07T11:18:49;25.70;55.70
31967;DHT22;18496;52.042;6.812;2022-08-07T11:21:24;25.70;53.90
31967;DHT22;18496;52.042;6.812;2022-08-07T11:35:22;25.70;54.30
31967;DHT22;18496;52.042;6.812;2022-08-07T11:47:08;25.90;52.30
31967;DHT22;18496;52.042;6.812;2022-08-07T11:49:24;25.90;51.70
31967;DHT22;18496;52.042;6.812;2022-08-07T12:10:34;26.60;53.20
31967;DHT22;18496;52.042;6.812;2022-08-07T12:12:56;26.70;52.20
31967;DHT22;18496;52.042;6.812;2022-08-07T12:15:14;26.80;51.80
31967;DHT22;18496;52.042;6.812;2022-08-07T12:17:26;27.00;53.10
31967;DHT22;18496;52.042;6.812;2022-08-07T12:19:52;27.10;51.00
31967;DHT22;18496;52.042;6.812;2022-08-07T12:22:12;27.30;51.70
31967;DHT22;18496;52.042;6.812;2022-08-07T12:27:15;27.60;51.70
31967;DHT22;18496;52.042;6.812;2022-08-07T12:32:18;27.70;50.10
31967;DHT22;18496;52.042;6.812;2022-08-07T12:34:25;27.60;51.20
31967;DHT22;18496;52.042;6.812;2022-08-07T12:36:32;27.60;51.10
31967;DHT22;18496;52.042;6.812;2022-08-07T12:38:38;27.50;50.60
31967;DHT22;18496;52.042;6.812;2022-08-07T12:40:46;27.50;51.10
31967;DHT22;18496;52.042;6.812;2022-08-07T12:42:56;27.50;51.70
31967;DHT22;18496;52.042;6.812;2022-08-07T12:45:06;27.60;51.90
31967;DHT22;18496;52.042;6.812;2022-08-07T12:52:15;28.10;50.90
31967;DHT22;18496;52.042;6.812;2022-08-07T12:56:41;28.50;50.10
31967;DHT22;18496;52.042;6.812;2022-08-07T12:58:48;28.60;49.50
31967;DHT22;18496;52.042;6.812;2022-08-07T13:01:02;28.80;48.60
31967;DHT22;18496;52.042;6.812;2022-08-07T13:05:54;29.00;48.00
31967;DHT22;18496;52.042;6.812;2022-08-07T13:10:53;29.00;46.30
31967;DHT22;18496;52.042;6.812;2022-08-07T13:22:44;28.90;47.70
31967;DHT22;18496;52.042;6.812;2022-08-07T13:25:13;29.00;48.10
31967;DHT22;18496;52.042;6.812;2022-08-07T13:27:25;29.10;48.30
31967;DHT22;18496;52.042;6.812;2022-08-07T13:29:41;29.30;48.30
31967;DHT22;18496;52.042;6.812;2022-08-07T13:32:00;29.40;46.90
31967;DHT22;18496;52.042;6.812;2022-08-07T13:36:27;29.50;46.60
31967;DHT22;18496;52.042;6.812;2022-08-07T13:39:19;29.60;46.70
31967;DHT22;18496;52.042;6.812;2022-08-07T13:41:33;29.80;46.50
31967;DHT22;18496;52.042;6.812;2022-08-07T13:43:45;30.00;45.60
31967;DHT22;18496;52.042;6.812;2022-08-07T13:45:54;29.80;45.50
31967;DHT22;18496;52.042;6.812;2022-08-07T13:48:00;29.80;46.80
31967;DHT22;18496;52.042;6.812;2022-08-07T13:50:07;29.70;45.80
31967;DHT22;18496;52.042;6.812;2022-08-07T13:52:12;29.60;46.30
31967;DHT22;18496;52.042;6.812;2022-08-07T13:54:19;29.70;46.00
31967;DHT22;18496;52.042;6.812;2022-08-07T13:56:24;29.70;47.00
31967;DHT22;18496;52.042;6.812;2022-08-07T13:58:29;29.70;45.30
31967;DHT22;18496;52.042;6.812;2022-08-07T14:00:58;29.60;45.30
31967;DHT22;18496;52.042;6.812;2022-08-07T14:03:05;29.50;45.10
31967;DHT22;18496;52.042;6.812;2022-08-07T14:05:11;29.60;46.20
31967;DHT22;18496;52.042;6.812;2022-08-07T14:07:19;29.70;45.30
31967;DHT22;18496;52.042;6.812;2022-08-07T14:09:27;29.80;45.00
31967;DHT22;18496;52.042;6.812;2022-08-07T14:11:35;29.80;45.30
31967;DHT22;18496;52.042;6.812;2022-08-07T14:13:51;29.90;44.40
31967;DHT22;18496;52.042;6.812;2022-08-07T14:16:04;30.00;44.70
31967;DHT22;18496;52.042;6.812;2022-08-07T14:18:30;29.80;44.20
31967;DHT22;18496;52.042;6.812;2022-08-07T14:20:36;29.70;43.80
31967;DHT22;18496;52.042;6.812;2022-08-07T14:22:42;29.70;44.40
31967;DHT22;18496;52.042;6.812;2022-08-07T14:24:50;29.70;44.30
31967;DHT22;18496;52.042;6.812;2022-08-07T14:27:02;29.60;45.10
31967;DHT22;18496;52.042;6.812;2022-08-07T14:31:22;29.60;43.90
31967;DHT22;18496;52.042;6.812;2022-08-07T14:33:30;29.70;44.70
31967;DHT22;18496;52.042;6.812;2022-08-07T14:35:36;29.80;44.10
31967;DHT22;18496;52.042;6.812;2022-08-07T14:37:42;29.80;43.80
31967;DHT22;18496;52.042;6.812;2022-08-07T14:39:47;29.90;44.00
31967;DHT22;18496;52.042;6.812;2022-08-07T14:41:52;29.80;44.30
31967;DHT22;18496;52.042;6.812;2022-08-07T14:43:56;29.90;44.80
31967;DHT22;18496;52.042;6.812;2022-08-07T14:46:01;29.90;44.10
31967;DHT22;18496;52.042;6.812;2022-08-07T14:48:06;30.00;45.10
31967;DHT22;18496;52.042;6.812;2022-08-07T14:50:11;30.10;44.50
31967;DHT22;18496;52.042;6.812;2022-08-07T14:52:22;30.40;43.90
31967;DHT22;18496;52.042;6.812;2022-08-07T14:54:31;30.50;44.90
31967;DHT22;18496;52.042;6.812;2022-08-07T14:56:39;30.80;45.10
31967;DHT22;18496;52.042;6.812;2022-08-07T14:58:50;31.00;44.10
31967;DHT22;18496;52.042;6.812;2022-08-07T15:00:55;31.20;43.70
31967;DHT22;18496;52.042;6.812;2022-08-07T15:03:04;31.20;42.80
31967;DHT22;18496;52.042;6.812;2022-08-07T15:05:14;31.20;41.40
31967;DHT22;18496;52.042;6.812;2022-08-07T15:07:22;31.10;41.50
31967;DHT22;18496;52.042;6.812;2022-08-07T15:09:28;31.20;42.10
31967;DHT22;18496;52.042;6.812;2022-08-07T15:11:40;31.20;42.60
31967;DHT22;18496;52.042;6.812;2022-08-07T15:14:07;31.20;43.30
31967;DHT22;18496;52.042;6.812;2022-08-07T15:16:12;31.20;42.60
31967;DHT22;18496;52.042;6.812;2022-08-07T15:18:29;31.20;41.70
31967;DHT22;18496;52.042;6.812;2022-08-07T15:20:36;31.20;42.00
31967;DHT22;18496;52.042;6.812;2022-08-07T15:22:45;31.20;42.40
31967;DHT22;18496;52.042;6.812;2022-08-07T15:24:51;31.10;41.90
31967;DHT22;18496;52.042;6.812;2022-08-07T15:27:02;31.10;41.60
31967;DHT22;18496;52.042;6.812;2022-08-07T15:29:09;31.10;40.90
31967;DHT22;18496;52.042;6.812;2022-08-07T15:31:15;31.00;41.40
31967;DHT22;18496;52.042;6.812;2022-08-07T15:33:22;31.00;41.00
31967;DHT22;18496;52.042;6.812;2022-08-07T15:35:27;31.00;40.60
31967;DHT22;18496;52.042;6.812;2022-08-07T15:37:33;31.00;40.90
31967;DHT22;18496;52.042;6.812;2022-08-07T15:39:39;31.00;41.40
31967;DHT22;18496;52.042;6.812;2022-08-07T15:42:03;31.10;41.80
31967;DHT22;18496;52.042;6.812;2022-08-07T15:44:11;31.30;41.70
31967;DHT22;18496;52.042;6.812;2022-08-07T15:46:20;31.30;41.60
31967;DHT22;18496;52.042;6.812;2022-08-07T15:48:34;31.30;41.60
31967;DHT22;18496;52.042;6.812;2022-08-07T15:50:41;31.40;41.70
31967;DHT22;18496;52.042;6.812;2022-08-07T15:52:46;31.50;41.80
31967;DHT22;18496;52.042;6.812;2022-08-07T15:54:51;31.40;41.80
31967;DHT22;18496;52.042;6.812;2022-08-07T15:56:56;31.40;41.20
31967;DHT22;18496;52.042;6.812;2022-08-07T15:59:04;31.30;41.50
31967;DHT22;18496;52.042;6.812;2022-08-07T16:01:24;31.20;42.30
31967;DHT22;18496;52.042;6.812;2022-08-07T16:03:31;31.10;41.90
31967;DHT22;18496;52.042;6.812;2022-08-07T16:05:38;31.00;41.80